createdAt,value
2023-02-03T00:00:08.131Z,10.30
2023-02-03T00:02:42.241Z,10.30
2023-02-03T00:05:09.463Z,10.40
2023-02-03T00:07:38.890Z,10.40
2023-02-03T00:10:07.308Z,10.50
2023-02-03T00:12:34.485Z,10.30
2023-02-03T00:15:01.436Z,10.20
2023-02-03T00:17:28.373Z,10.20
2023-02-03T00:19:55.249Z,10.20
2023-02-03T00:22:22.174Z,10.10
2023-02-03T00:24:49.111Z,10.10
2023-02-03T00:27:16.113Z,10.00
2023-02-03T00:29:43.291Z,10.00
2023-02-03T00:32:10.257Z,9.90
2023-02-03T00:34:37.269Z,10.10
2023-02-03T00:37:04.458Z,9.90
2023-02-03T00:39:31.278Z,9.80
2023-02-03T00:41:58.128Z,9.60
2023-02-03T00:44:26.245Z,9.80
2023-02-03T00:46:53.102Z,9.80
2023-02-03T00:49:21.098Z,9.80
2023-02-03T00:51:48.140Z,9.80
2023-02-03T00:54:15.067Z,9.80
2023-02-03T00:56:42.133Z,9.80
2023-02-03T00:59:09.033Z,9.80
2023-02-03T01:01:37.063Z,9.90
2023-02-03T01:04:04.304Z,9.90
2023-02-03T01:06:33.557Z,9.90
2023-02-03T01:09:03.475Z,9.90
2023-02-03T01:11:30.405Z,10.00
2023-02-03T01:14:01.722Z,9.90
2023-02-03T01:16:30.706Z,9.90
2023-02-03T01:18:57.686Z,9.90
2023-02-03T01:21:26.178Z,9.90
2023-02-03T01:23:53.976Z,9.90
2023-02-03T01:26:22.567Z,9.90
2023-02-03T01:28:54.880Z,9.90
2023-02-03T01:31:29.306Z,9.90
2023-02-03T01:33:57.389Z,9.90
2023-02-03T01:36:29.477Z,10.00
2023-02-03T01:38:56.588Z,10.00
2023-02-03T01:41:30.171Z,10.00
2023-02-03T01:43:58.955Z,10.00
2023-02-03T01:46:29.218Z,10.00
2023-02-03T01:49:19.801Z,10.00
2023-02-03T01:51:47.642Z,10.00
2023-02-03T01:54:27.795Z,10.00
2023-02-03T01:56:59.077Z,10.00
2023-02-03T01:59:26.981Z,10.10
2023-02-03T02:01:54.837Z,10.10
2023-02-03T02:04:23.356Z,10.00
2023-02-03T02:06:51.762Z,10.00
2023-02-03T02:09:19.073Z,10.10
2023-02-03T02:11:46.046Z,10.20
2023-02-03T02:14:13.672Z,10.20
2023-02-03T02:16:52.342Z,10.10
2023-02-03T02:19:50.357Z,10.10
2023-02-03T02:22:44.634Z,10.10
2023-02-03T02:25:24.401Z,10.00
2023-02-03T02:28:22.134Z,10.00
2023-02-03T02:31:27.819Z,10.10
2023-02-03T02:34:22.914Z,10.10
2023-02-03T02:37:19.744Z,10.10
2023-02-03T02:40:24.613Z,10.20
2023-02-03T02:43:09.106Z,10.20
2023-02-03T02:45:45.537Z,10.20
2023-02-03T02:48:24.786Z,10.20
2023-02-03T02:50:55.447Z,10.30
2023-02-03T02:53:26.303Z,10.20
2023-02-03T02:55:57.126Z,10.20
2023-02-03T02:58:26.822Z,10.30
2023-02-03T03:00:57.127Z,10.40
2023-02-03T03:03:25.224Z,10.40
2023-02-03T03:06:00.530Z,10.40
2023-02-03T03:09:16.297Z,10.40
2023-02-03T03:12:35.676Z,10.30
2023-02-03T03:15:14.393Z,10.30
2023-02-03T03:17:48.668Z,10.30
2023-02-03T03:20:25.093Z,10.20
2023-02-03T03:23:00.397Z,10.30
2023-02-03T03:25:52.228Z,10.30
2023-02-03T03:28:30.147Z,10.20
2023-02-03T03:30:57.846Z,10.20
2023-02-03T03:33:26.110Z,10.20
2023-02-03T03:36:20.170Z,10.20
2023-02-03T03:38:55.955Z,10.20
2023-02-03T03:41:38.973Z,10.20
2023-02-03T03:44:11.340Z,10.10
2023-02-03T03:46:45.008Z,10.10
2023-02-03T03:49:13.457Z,10.00
2023-02-03T03:52:04.608Z,10.10
2023-02-03T03:54:33.832Z,10.10
2023-02-03T03:57:15.772Z,10.20
2023-02-03T03:59:46.983Z,10.20
2023-02-03T04:02:16.308Z,10.30
2023-02-03T04:04:44.847Z,10.20
2023-02-03T04:07:13.805Z,10.30
2023-02-03T04:09:42.862Z,10.20
2023-02-03T04:12:25.082Z,10.30
2023-02-03T04:14:51.963Z,10.30
2023-02-03T04:17:20.136Z,10.20
2023-02-03T04:19:48.365Z,10.30
2023-02-03T04:22:15.470Z,10.30
2023-02-03T04:24:42.378Z,10.20
2023-02-03T04:27:09.288Z,10.20
2023-02-03T04:29:36.219Z,10.10
2023-02-03T04:32:03.314Z,10.20
2023-02-03T04:34:30.294Z,10.20
2023-02-03T04:36:57.126Z,10.20
2023-02-03T04:39:24.040Z,10.30
2023-02-03T04:41:50.979Z,10.20
2023-02-03T04:44:17.931Z,10.20
2023-02-03T04:46:44.845Z,10.10
2023-02-03T04:49:11.766Z,10.20
2023-02-03T04:51:38.749Z,10.30
2023-02-03T04:54:05.700Z,10.20
2023-02-03T04:56:32.620Z,10.20
2023-02-03T04:58:59.677Z,10.20
2023-02-03T05:01:26.671Z,10.20
2023-02-03T05:03:53.868Z,10.20
2023-02-03T05:06:26.252Z,10.10
2023-02-03T05:08:53.564Z,10.20
2023-02-03T05:11:21.342Z,10.20
2023-02-03T05:13:48.485Z,10.20
2023-02-03T05:16:15.720Z,10.30
2023-02-03T05:18:42.836Z,10.20
2023-02-03T05:21:09.771Z,10.20
2023-02-03T05:23:36.947Z,10.20
2023-02-03T05:26:04.386Z,10.30
2023-02-03T05:28:31.608Z,10.30
2023-02-03T05:30:59.571Z,10.20
2023-02-03T05:33:26.489Z,10.10
2023-02-03T05:35:53.692Z,10.10
2023-02-03T05:38:21.384Z,10.10
2023-02-03T05:41:07.969Z,10.20
2023-02-03T05:43:35.295Z,10.20
2023-02-03T05:46:07.229Z,10.20
2023-02-03T05:48:34.809Z,10.30
2023-02-03T05:51:01.896Z,10.10
2023-02-03T05:53:29.003Z,10.30
2023-02-03T05:55:56.003Z,10.20
2023-02-03T05:58:23.039Z,10.10
2023-02-03T06:00:51.191Z,10.10
2023-02-03T06:03:18.577Z,10.10
2023-02-03T06:05:46.893Z,10.10
2023-02-03T06:08:14.354Z,10.10
2023-02-03T06:10:42.871Z,10.20
2023-02-03T06:13:15.104Z,10.20
2023-02-03T06:15:45.348Z,10.10
2023-02-03T06:18:12.601Z,10.10
2023-02-03T06:20:39.523Z,10.10
2023-02-03T06:23:06.441Z,10.30
2023-02-03T06:25:33.672Z,10.20
2023-02-03T06:28:00.792Z,10.20
2023-02-03T06:30:29.249Z,10.20
2023-02-03T06:32:56.998Z,10.20
2023-02-03T06:35:24.133Z,10.20
2023-02-03T06:37:51.047Z,10.10
2023-02-03T06:40:20.134Z,10.10
2023-02-03T06:42:48.917Z,10.10
2023-02-03T06:45:16.007Z,10.10
2023-02-03T06:47:44.621Z,10.10
2023-02-03T06:50:14.242Z,10.00
2023-02-03T06:52:41.668Z,10.00
2023-02-03T06:55:08.994Z,10.10
2023-02-03T06:57:37.928Z,10.10
2023-02-03T07:00:08.148Z,10.20
2023-02-03T07:02:36.523Z,10.10
2023-02-03T07:05:04.595Z,10.10
2023-02-03T07:07:34.163Z,10.20
2023-02-03T07:10:02.484Z,10.20
2023-02-03T07:12:29.731Z,10.20
2023-02-03T07:14:57.046Z,10.30
2023-02-03T07:17:24.362Z,10.20
2023-02-03T07:19:52.403Z,10.10
2023-02-03T07:22:20.045Z,10.20
2023-02-03T07:24:47.174Z,10.10
2023-02-03T07:27:14.402Z,10.20
2023-02-03T07:29:41.228Z,10.20
2023-02-03T07:32:08.524Z,10.20
2023-02-03T07:34:37.006Z,10.20
2023-02-03T07:37:04.620Z,10.20
2023-02-03T07:39:33.357Z,10.20
2023-02-03T07:42:01.380Z,10.20
2023-02-03T07:44:31.553Z,10.20
2023-02-03T07:46:58.760Z,10.20
2023-02-03T07:49:26.381Z,10.20
2023-02-03T07:51:53.316Z,10.20
2023-02-03T07:54:20.943Z,10.30
2023-02-03T07:56:53.233Z,10.30
2023-02-03T07:59:20.451Z,10.30
2023-02-03T08:01:49.083Z,10.30
2023-02-03T08:04:17.360Z,10.20
2023-02-03T08:06:44.541Z,10.20
2023-02-03T08:09:12.816Z,10.20
2023-02-03T08:11:40.372Z,10.20
2023-02-03T08:14:08.065Z,10.20
2023-02-03T08:16:35.037Z,10.20
2023-02-03T08:19:02.744Z,10.30
2023-02-03T08:21:30.106Z,10.20
2023-02-03T08:23:58.496Z,10.20
2023-02-03T08:26:26.334Z,10.20
2023-02-03T08:28:54.387Z,10.30
2023-02-03T08:31:24.183Z,10.20
2023-02-03T08:36:40.528Z,10.30
2023-02-03T08:39:08.590Z,10.30
2023-02-03T08:41:36.366Z,10.30
2023-02-03T08:44:04.835Z,10.40
2023-02-03T08:46:33.103Z,10.40
2023-02-03T08:49:03.155Z,10.50
2023-02-03T08:51:31.268Z,10.50
2023-02-03T08:53:59.219Z,10.40
2023-02-03T08:56:27.412Z,10.30
2023-02-03T08:58:56.144Z,10.30
2023-02-03T09:01:23.601Z,10.40
2023-02-03T09:03:50.805Z,10.40
2023-02-03T09:06:18.755Z,10.50
2023-02-03T09:08:47.695Z,10.50
2023-02-03T09:11:18.108Z,10.40
2023-02-03T09:14:07.333Z,10.40
2023-02-03T09:16:36.873Z,10.40
2023-02-03T09:19:03.970Z,10.50
2023-02-03T09:21:33.345Z,10.50
2023-02-03T09:24:06.508Z,10.50
2023-02-03T09:26:33.968Z,10.50
2023-02-03T09:29:01.849Z,10.60
2023-02-03T09:31:29.107Z,10.60
2023-02-03T09:33:56.068Z,10.40
2023-02-03T09:36:23.031Z,10.50
2023-02-03T09:38:50.333Z,10.50
2023-02-03T09:41:31.615Z,10.60
2023-02-03T09:44:19.038Z,10.60
2023-02-03T09:46:52.091Z,10.60
2023-02-03T09:49:24.184Z,10.90
2023-02-03T09:51:59.418Z,10.70
2023-02-03T09:54:48.273Z,10.70
2023-02-03T09:57:24.633Z,10.70
2023-02-03T09:59:54.570Z,10.70
2023-02-03T10:02:21.658Z,10.70
2023-02-03T10:05:26.429Z,10.80
2023-02-03T10:08:06.333Z,10.80
2023-02-03T10:10:49.255Z,10.80
2023-02-03T10:13:45.831Z,10.90
2023-02-03T10:16:19.692Z,10.90
2023-02-03T10:18:51.121Z,10.90
2023-02-03T10:21:43.197Z,10.80
2023-02-03T10:24:19.613Z,10.90
2023-02-03T10:26:47.278Z,10.90
2023-02-03T10:29:27.214Z,10.90
2023-02-03T10:31:58.825Z,10.80
2023-02-03T10:34:26.499Z,10.90
2023-02-03T10:36:58.230Z,10.90
2023-02-03T10:39:30.335Z,10.90
2023-02-03T10:41:57.707Z,11.00
2023-02-03T10:44:33.727Z,11.00
2023-02-03T10:47:00.941Z,11.10
2023-02-03T10:49:29.628Z,11.00
2023-02-03T10:52:05.171Z,11.00
2023-02-03T10:54:38.267Z,11.10
2023-02-03T10:57:11.118Z,11.00
2023-02-03T10:59:42.814Z,11.00
2023-02-03T11:02:22.525Z,10.90
2023-02-03T11:05:19.320Z,10.90
2023-02-03T11:07:46.836Z,11.10
2023-02-03T11:10:31.074Z,11.10
2023-02-03T11:13:18.546Z,11.00
2023-02-03T11:15:52.328Z,10.90
2023-02-03T11:18:30.134Z,10.80
2023-02-03T11:20:58.904Z,10.90
2023-02-03T11:23:26.522Z,10.80
2023-02-03T11:25:56.105Z,10.80
2023-02-03T11:28:28.092Z,10.70
2023-02-03T11:30:58.143Z,10.80
2023-02-03T11:33:27.962Z,10.70
2023-02-03T11:36:02.380Z,10.80
2023-02-03T11:38:39.754Z,10.80
2023-02-03T11:41:07.864Z,10.80
2023-02-03T11:43:34.838Z,10.80
2023-02-03T11:46:09.896Z,10.80
2023-02-03T11:48:41.332Z,10.70
2023-02-03T11:51:43.994Z,10.70
2023-02-03T11:54:48.802Z,10.60
2023-02-03T11:57:35.338Z,10.60
2023-02-03T12:00:14.496Z,10.60
2023-02-03T12:02:59.847Z,10.70
2023-02-03T12:05:32.369Z,10.70
2023-02-03T12:08:02.453Z,10.70
2023-02-03T12:10:46.735Z,10.80
2023-02-03T12:13:43.332Z,10.70
2023-02-03T12:16:34.416Z,10.70
2023-02-03T12:19:27.560Z,10.50
2023-02-03T12:22:29.846Z,10.50
2023-02-03T12:25:23.807Z,10.50
2023-02-03T12:28:05.894Z,10.50
2023-02-03T12:30:42.384Z,10.50
2023-02-03T12:33:19.444Z,10.40
2023-02-03T12:35:57.330Z,10.40
2023-02-03T12:38:34.676Z,10.50
2023-02-03T12:41:14.001Z,10.50
2023-02-03T12:43:49.363Z,10.40
2023-02-03T12:46:58.832Z,10.40
2023-02-03T12:49:36.889Z,10.30
2023-02-03T12:52:19.408Z,10.30
2023-02-03T12:54:58.079Z,10.30
2023-02-03T12:57:38.117Z,10.20
2023-02-03T13:00:27.407Z,10.20
2023-02-03T13:03:30.055Z,10.30
2023-02-03T13:06:15.340Z,10.30
2023-02-03T13:08:53.811Z,10.30
2023-02-03T13:11:37.728Z,10.30
2023-02-03T13:14:21.401Z,10.30
2023-02-03T13:16:55.781Z,10.30
2023-02-03T13:19:28.630Z,10.40
2023-02-03T13:21:55.671Z,10.50
2023-02-03T13:24:27.807Z,10.60
2023-02-03T13:27:09.783Z,10.70
2023-02-03T13:29:52.976Z,10.70
2023-02-03T13:32:41.196Z,10.80
2023-02-03T13:35:33.884Z,10.80
2023-02-03T13:38:39.439Z,10.80
2023-02-03T13:41:15.595Z,10.90
2023-02-03T13:43:48.991Z,10.90
2023-02-03T13:46:32.280Z,11.10
2023-02-03T13:49:02.281Z,11.20
2023-02-03T13:51:36.254Z,11.30
2023-02-03T13:54:14.455Z,11.20
2023-02-03T13:56:42.895Z,11.20
2023-02-03T13:59:16.657Z,11.20
2023-02-03T14:01:44.752Z,11.10
2023-02-03T14:04:27.004Z,11.10
2023-02-03T14:06:54.085Z,11.00
2023-02-03T14:09:36.550Z,11.00
2023-02-03T14:12:33.386Z,11.20
2023-02-03T14:15:13.350Z,11.00
2023-02-03T14:17:42.544Z,10.90
2023-02-03T14:20:27.966Z,10.90
2023-02-03T14:22:59.408Z,10.80
2023-02-03T14:25:28.268Z,10.80
2023-02-03T14:28:06.486Z,10.80
2023-02-03T14:30:33.932Z,10.80
2023-02-03T14:33:06.873Z,10.80
2023-02-03T14:35:37.500Z,10.80
2023-02-03T14:38:13.330Z,10.80
2023-02-03T14:41:04.885Z,10.70
2023-02-03T14:43:37.909Z,10.70
2023-02-03T14:46:31.312Z,10.80
2023-02-03T14:49:45.766Z,10.80
2023-02-03T14:52:20.529Z,10.90
2023-02-03T14:55:30.967Z,10.90
2023-02-03T14:58:03.280Z,10.90
2023-02-03T15:00:34.777Z,10.90
2023-02-03T15:03:10.833Z,10.90
2023-02-03T15:05:46.617Z,11.00
2023-02-03T15:08:44.170Z,11.00
2023-02-03T15:11:27.590Z,11.00
2023-02-03T15:13:56.940Z,11.00
2023-02-03T15:16:25.402Z,11.00
2023-02-03T15:19:00.676Z,11.00
2023-02-03T15:21:27.861Z,10.90
2023-02-03T15:23:54.937Z,10.90
2023-02-03T15:26:24.962Z,11.00
2023-02-03T15:29:05.784Z,11.00
2023-02-03T15:31:45.813Z,11.00
2023-02-03T15:34:17.459Z,11.00
2023-02-03T15:36:49.900Z,11.00
2023-02-03T15:39:39.028Z,11.20
2023-02-03T15:42:16.662Z,11.10
2023-02-03T15:45:21.642Z,11.10
2023-02-03T15:47:54.742Z,11.00
2023-02-03T15:50:50.813Z,11.10
2023-02-03T15:53:31.958Z,11.20
2023-02-03T15:56:06.023Z,11.20
2023-02-03T15:58:46.922Z,11.20
2023-02-03T16:01:18.006Z,11.10
2023-02-03T16:03:53.512Z,11.10
2023-02-03T16:06:38.537Z,11.10
2023-02-03T16:09:07.290Z,11.00
2023-02-03T16:11:37.022Z,11.10
2023-02-03T16:14:12.097Z,11.00
2023-02-03T16:17:04.437Z,11.20
2023-02-03T16:19:38.655Z,11.10
2023-02-03T16:22:37.621Z,11.30
2023-02-03T16:25:13.852Z,11.00
2023-02-03T16:27:43.933Z,11.00
2023-02-03T16:30:29.458Z,11.10
2023-02-03T16:33:27.682Z,11.10
2023-02-03T16:36:15.616Z,11.10
2023-02-03T16:39:08.647Z,10.90
2023-02-03T16:41:57.077Z,10.90
2023-02-03T16:44:42.610Z,11.00
2023-02-03T16:47:49.872Z,10.90
2023-02-03T16:50:41.014Z,10.90
2023-02-03T16:53:18.495Z,10.90
2023-02-03T16:55:46.020Z,10.80
2023-02-03T16:58:13.058Z,10.70
2023-02-03T17:00:42.119Z,10.70
2023-02-03T17:03:13.971Z,10.70
2023-02-03T17:05:42.866Z,10.90
2023-02-03T17:08:09.889Z,10.70
2023-02-03T17:10:38.606Z,10.80
2023-02-03T17:13:05.801Z,10.80
2023-02-03T17:15:33.424Z,10.80
2023-02-03T17:18:00.814Z,10.70
2023-02-03T17:20:27.936Z,10.70
2023-02-03T17:22:55.158Z,10.70
2023-02-03T17:25:22.247Z,10.90
2023-02-03T17:27:49.320Z,10.90
2023-02-03T17:30:16.864Z,11.00
2023-02-03T17:32:45.567Z,10.90
2023-02-03T17:35:12.809Z,10.80
2023-02-03T17:37:39.767Z,10.80
2023-02-03T17:54:06.337Z,10.60
2023-02-03T17:56:35.994Z,10.60
2023-02-03T17:59:05.039Z,10.70
2023-02-03T18:01:32.457Z,10.70
2023-02-03T18:04:02.144Z,10.80
2023-02-03T18:06:35.675Z,10.90
2023-02-03T18:09:06.173Z,11.00
2023-02-03T18:11:35.223Z,10.90
2023-02-03T18:14:03.210Z,10.90
2023-02-03T18:16:33.325Z,11.00
2023-02-03T18:19:02.685Z,10.80
2023-02-03T18:21:36.477Z,10.90
2023-02-03T18:24:05.920Z,11.00
2023-02-03T18:26:37.599Z,11.10
2023-02-03T18:29:06.899Z,11.10
2023-02-03T18:31:35.126Z,10.90
2023-02-03T18:34:03.893Z,10.80
2023-02-03T18:36:32.191Z,10.70
2023-02-03T18:38:59.387Z,10.80
2023-02-03T18:41:26.776Z,10.60
2023-02-03T18:43:54.417Z,10.60
2023-02-03T18:46:29.543Z,10.60
2023-02-03T18:48:57.044Z,10.60
2023-02-03T18:51:25.468Z,10.50
2023-02-03T18:53:55.878Z,10.60
2023-02-03T18:56:26.432Z,10.50
2023-02-03T18:58:53.987Z,10.50
2023-02-03T19:01:26.416Z,10.50
2023-02-03T19:03:55.588Z,10.60
2023-02-03T19:06:26.546Z,10.50
2023-02-03T19:08:53.685Z,10.70
2023-02-03T19:11:20.855Z,10.60
2023-02-03T19:13:48.535Z,10.50
2023-02-03T19:16:17.082Z,10.60
2023-02-03T19:18:45.375Z,10.60
2023-02-03T19:21:13.647Z,10.70
2023-02-03T19:23:41.824Z,10.60
2023-02-03T19:26:10.158Z,10.60
2023-02-03T19:28:37.856Z,10.50
2023-02-03T19:31:11.617Z,10.60
2023-02-03T19:33:39.269Z,10.80
2023-02-03T19:36:07.263Z,10.60
2023-02-03T19:38:34.560Z,10.60
2023-02-03T19:41:02.334Z,10.60
2023-02-03T19:43:31.669Z,10.50
2023-02-03T19:46:02.459Z,10.50
2023-02-03T19:48:29.629Z,10.60
2023-02-03T19:50:56.679Z,10.50
2023-02-03T19:53:24.512Z,10.50
2023-02-03T19:55:52.376Z,10.40
2023-02-03T19:58:20.582Z,10.30
2023-02-03T20:00:47.723Z,10.30
2023-02-03T20:03:14.738Z,10.30
2023-02-03T20:05:41.722Z,10.20
2023-02-03T20:08:13.094Z,10.30
2023-02-03T20:10:41.318Z,10.30
2023-02-03T20:13:10.228Z,10.20
2023-02-03T20:15:37.447Z,10.20
2023-02-03T20:18:06.737Z,10.20
2023-02-03T20:20:34.243Z,10.30
2023-02-03T20:23:02.805Z,10.30
2023-02-03T20:25:29.880Z,10.20
2023-02-03T20:27:59.846Z,10.20
2023-02-03T20:30:26.920Z,10.20
2023-02-03T20:32:56.334Z,10.00
2023-02-03T20:35:24.034Z,10.00
2023-02-03T20:37:52.390Z,10.00
2023-02-03T20:40:24.892Z,10.00
2023-02-03T20:42:54.204Z,9.90
2023-02-03T20:45:23.352Z,10.00
2023-02-03T20:47:51.672Z,9.90
2023-02-03T20:50:25.223Z,9.80
2023-02-03T20:52:56.130Z,9.80
2023-02-03T20:55:24.215Z,9.70
2023-02-03T20:57:54.456Z,9.90
2023-02-03T21:00:25.919Z,10.00
2023-02-03T21:03:12.068Z,9.80
2023-02-03T21:05:42.210Z,9.90
2023-02-03T21:08:20.338Z,9.80
2023-02-03T21:10:48.670Z,9.80
2023-02-03T21:13:21.312Z,9.90
2023-02-03T21:15:56.324Z,9.90
2023-02-03T21:18:38.527Z,9.80
2023-02-03T21:21:11.489Z,9.80
2023-02-03T21:23:40.218Z,9.80
2023-02-03T21:26:23.309Z,9.90
2023-02-03T21:28:55.659Z,9.80
2023-02-03T21:31:28.423Z,9.90
2023-02-03T21:34:01.972Z,9.90
2023-02-03T21:36:35.789Z,10.00
2023-02-03T21:39:23.868Z,10.10
2023-02-03T21:41:51.035Z,10.20
2023-02-03T21:44:33.564Z,10.10
2023-02-03T21:47:12.882Z,10.00
2023-02-03T21:49:40.136Z,9.90
2023-02-03T21:52:14.539Z,9.90
2023-02-03T21:54:44.626Z,10.10
2023-02-03T21:57:17.891Z,10.20
2023-02-03T21:59:49.289Z,10.20
2023-02-03T22:02:55.560Z,10.00
2023-02-03T22:05:23.969Z,10.00
2023-02-03T22:07:51.357Z,9.90
2023-02-03T22:10:21.570Z,10.00
2023-02-03T22:12:48.592Z,10.00
2023-02-03T22:15:15.818Z,10.10
2023-02-03T22:17:42.796Z,9.90
2023-02-03T22:20:10.386Z,9.80
2023-02-03T22:22:37.516Z,9.70
2023-02-03T22:25:04.646Z,9.80
2023-02-03T22:27:32.688Z,9.90
2023-02-03T22:29:59.583Z,9.80
2023-02-03T22:32:28.468Z,9.90
2023-02-03T22:34:55.623Z,9.80
2023-02-03T22:37:22.672Z,9.80
2023-02-03T22:39:49.893Z,9.90
2023-02-03T22:42:17.659Z,9.70
2023-02-03T22:44:45.534Z,9.70
2023-02-03T22:47:12.513Z,9.80
2023-02-03T22:49:39.449Z,9.70
2023-02-03T22:52:06.696Z,9.70
2023-02-03T22:54:34.646Z,9.60
2023-02-03T22:57:01.771Z,9.60
2023-02-03T22:59:29.009Z,9.70
2023-02-03T23:01:56.099Z,9.70
2023-02-03T23:04:23.901Z,9.60
2023-02-03T23:06:50.840Z,9.60
2023-02-03T23:09:18.423Z,9.60
2023-02-03T23:11:46.770Z,9.70
2023-02-03T23:14:14.018Z,9.70
2023-02-03T23:16:41.077Z,9.70
2023-02-03T23:19:08.014Z,9.70
2023-02-03T23:21:35.103Z,9.70
2023-02-03T23:24:02.053Z,9.70
2023-02-03T23:26:29.142Z,9.70
2023-02-03T23:28:56.191Z,9.60
2023-02-03T23:31:23.501Z,9.60
2023-02-03T23:34:08.983Z,9.70
2023-02-03T23:36:35.948Z,9.70
2023-02-03T23:39:03.166Z,9.70
2023-02-03T23:41:30.129Z,9.70
2023-02-03T23:43:57.095Z,9.60
2023-02-03T23:46:25.487Z,9.70
2023-02-03T23:48:52.787Z,9.70
2023-02-03T23:51:19.692Z,9.70
2023-02-03T23:53:46.737Z,9.80
2023-02-03T23:56:14.907Z,9.80
2023-02-03T23:58:41.940Z,9.90
